createdAt,value
2022-12-18T00:00:41.650Z,-8.22
2022-12-18T00:01:41.771Z,-8.22
2022-12-18T00:02:41.784Z,-8.22
2022-12-18T00:03:42.065Z,-8.23
2022-12-18T00:04:41.662Z,-8.23
2022-12-18T00:05:41.619Z,-8.24
2022-12-18T00:06:41.598Z,-8.25
2022-12-18T00:07:41.582Z,-8.26
2022-12-18T00:08:41.597Z,-8.26
2022-12-18T00:09:41.708Z,-8.27
2022-12-18T00:10:41.558Z,-8.28
2022-12-18T00:11:41.559Z,-8.27
2022-12-18T00:12:41.528Z,-8.27
2022-12-18T00:13:42.011Z,-8.27
2022-12-18T00:14:41.664Z,-8.28
2022-12-18T00:15:41.522Z,-8.28
2022-12-18T00:16:41.528Z,-8.28
2022-12-18T00:17:41.465Z,-8.29
2022-12-18T00:18:41.983Z,-8.30
2022-12-18T00:19:41.454Z,-8.32
2022-12-18T00:20:41.456Z,-8.35
2022-12-18T00:21:41.434Z,-8.36
2022-12-18T00:22:41.438Z,-8.38
2022-12-18T00:23:41.977Z,-8.39
2022-12-18T00:24:41.436Z,-8.40
2022-12-18T00:25:41.409Z,-8.41
2022-12-18T00:26:41.407Z,-8.42
2022-12-18T00:27:41.372Z,-8.42
2022-12-18T00:28:41.357Z,-8.43
2022-12-18T00:29:41.387Z,-8.44
2022-12-18T00:30:41.362Z,-8.46
2022-12-18T00:31:41.398Z,-8.47
2022-12-18T00:32:41.313Z,-8.49
2022-12-18T00:33:41.655Z,-8.50
2022-12-18T00:34:41.346Z,-8.52
2022-12-18T00:35:41.322Z,-8.53
2022-12-18T00:36:41.285Z,-8.54
2022-12-18T00:37:41.294Z,-8.55
2022-12-18T00:38:41.256Z,-8.56
2022-12-18T00:39:41.281Z,-8.56
2022-12-18T00:40:41.286Z,-8.56
2022-12-18T00:41:41.249Z,-8.56
2022-12-18T00:42:41.230Z,-8.56
2022-12-18T00:43:41.570Z,-8.57
2022-12-18T00:44:41.215Z,-8.58
2022-12-18T00:45:41.262Z,-8.57
2022-12-18T00:46:41.165Z,-8.57
2022-12-18T00:47:41.166Z,-8.56
2022-12-18T00:48:41.157Z,-8.57
2022-12-18T00:49:41.143Z,-8.58
2022-12-18T00:50:41.129Z,-8.59
2022-12-18T00:51:41.140Z,-8.61
2022-12-18T00:52:41.110Z,-8.62
2022-12-18T00:53:41.348Z,-8.63
2022-12-18T00:54:41.088Z,-8.63
2022-12-18T00:55:41.084Z,-8.63
2022-12-18T00:56:48.267Z,-8.63
2022-12-18T00:57:42.058Z,-8.64
2022-12-18T00:58:41.051Z,-8.65
2022-12-18T00:59:41.046Z,-8.67
2022-12-18T01:00:41.096Z,-8.69
2022-12-18T01:01:41.215Z,-8.71
2022-12-18T01:02:41.148Z,-8.73
2022-12-18T01:03:41.448Z,-8.75
2022-12-18T01:04:40.991Z,-8.77
2022-12-18T01:05:40.984Z,-8.78
2022-12-18T01:06:40.990Z,-8.79
2022-12-18T01:07:40.945Z,-8.80
2022-12-18T01:08:40.953Z,-8.81
2022-12-18T01:09:40.942Z,-8.81
2022-12-18T01:10:40.936Z,-8.81
2022-12-18T01:11:40.940Z,-8.81
2022-12-18T01:12:40.901Z,-8.82
2022-12-18T01:13:41.313Z,-8.83
2022-12-18T01:14:40.909Z,-8.84
2022-12-18T01:15:40.868Z,-8.85
2022-12-18T01:16:40.927Z,-8.85
2022-12-18T01:17:40.881Z,-8.86
2022-12-18T01:18:40.840Z,-8.86
2022-12-18T01:19:40.828Z,-8.87
2022-12-18T01:20:40.818Z,-8.87
2022-12-18T01:21:40.810Z,-8.88
2022-12-18T01:22:40.838Z,-8.88
2022-12-18T01:23:41.105Z,-8.89
2022-12-18T01:24:40.772Z,-8.89
2022-12-18T01:25:40.765Z,-8.90
2022-12-18T01:26:40.758Z,-8.91
2022-12-18T01:27:40.776Z,-8.93
2022-12-18T01:28:41.056Z,-8.94
2022-12-18T01:29:40.739Z,-8.95
2022-12-18T01:30:40.719Z,-8.96
2022-12-18T01:31:40.796Z,-8.97
2022-12-18T01:32:40.712Z,-8.97
2022-12-18T01:33:41.042Z,-8.98
2022-12-18T01:34:40.683Z,-8.98
2022-12-18T01:35:40.662Z,-8.99
2022-12-18T01:36:40.661Z,-8.99
2022-12-18T01:37:40.660Z,-8.98
2022-12-18T01:38:40.653Z,-8.98
2022-12-18T01:39:40.623Z,-8.98
2022-12-18T01:40:40.675Z,-8.99
2022-12-18T01:41:40.603Z,-9.00
2022-12-18T01:42:40.592Z,-9.02
2022-12-18T01:43:41.084Z,-9.03
2022-12-18T01:44:40.594Z,-9.05
2022-12-18T01:45:40.607Z,-9.06
2022-12-18T01:46:40.557Z,-9.08
2022-12-18T01:47:40.541Z,-9.08
2022-12-18T01:48:40.560Z,-9.08
2022-12-18T01:49:40.525Z,-9.08
2022-12-18T01:50:40.544Z,-9.09
2022-12-18T01:51:40.502Z,-9.09
2022-12-18T01:52:40.491Z,-9.09
2022-12-18T01:53:40.826Z,-9.10
2022-12-18T01:54:40.468Z,-9.11
2022-12-18T01:55:40.458Z,-9.12
2022-12-18T01:56:40.445Z,-9.13
2022-12-18T01:57:40.438Z,-9.14
2022-12-18T01:58:40.438Z,-9.15
2022-12-18T01:59:40.420Z,-9.16
2022-12-18T02:00:40.462Z,-9.16
2022-12-18T02:01:40.582Z,-9.16
2022-12-18T02:02:40.572Z,-9.17
2022-12-18T02:03:40.843Z,-9.17
2022-12-18T02:04:43.955Z,-9.17
2022-12-18T02:05:41.354Z,-9.18
2022-12-18T02:06:40.361Z,-9.18
2022-12-18T02:07:40.377Z,-9.18
2022-12-18T02:08:40.323Z,-9.19
2022-12-18T02:09:40.316Z,-9.19
2022-12-18T02:10:40.330Z,-9.20
2022-12-18T02:11:40.300Z,-9.20
2022-12-18T02:12:40.289Z,-9.20
2022-12-18T02:13:40.674Z,-9.19
2022-12-18T02:14:40.271Z,-9.20
2022-12-18T02:15:40.259Z,-9.20
2022-12-18T02:16:40.367Z,-9.21
2022-12-18T02:17:40.249Z,-9.21
2022-12-18T02:18:40.254Z,-9.20
2022-12-18T02:19:40.231Z,-9.20
2022-12-18T02:20:40.228Z,-9.20
2022-12-18T02:21:40.216Z,-9.20
2022-12-18T02:22:40.190Z,-9.19
2022-12-18T02:23:40.528Z,-9.19
2022-12-18T02:24:40.162Z,-9.19
2022-12-18T02:25:40.208Z,-9.19
2022-12-18T02:26:40.144Z,-9.19
2022-12-18T02:27:40.131Z,-9.20
2022-12-18T02:28:40.119Z,-9.20
2022-12-18T02:29:40.104Z,-9.21
2022-12-18T02:30:40.123Z,-9.22
2022-12-18T02:31:40.108Z,-9.23
2022-12-18T02:32:40.081Z,-9.24
2022-12-18T02:33:40.408Z,-9.24
2022-12-18T02:34:40.085Z,-9.25
2022-12-18T02:35:40.077Z,-9.25
2022-12-18T02:36:40.061Z,-9.26
2022-12-18T02:37:40.026Z,-9.28
2022-12-18T02:38:40.021Z,-9.29
2022-12-18T02:39:40.006Z,-9.30
2022-12-18T02:40:39.987Z,-9.30
2022-12-18T02:41:39.976Z,-9.29
2022-12-18T02:42:39.995Z,-9.29
2022-12-18T02:43:40.350Z,-9.30
2022-12-18T02:44:39.956Z,-9.31
2022-12-18T02:45:40.032Z,-9.32
2022-12-18T02:46:39.933Z,-9.33
2022-12-18T02:47:39.948Z,-9.34
2022-12-18T02:48:39.913Z,-9.34
2022-12-18T02:49:39.905Z,-9.35
2022-12-18T02:50:39.909Z,-9.36
2022-12-18T02:51:39.910Z,-9.36
2022-12-18T02:52:39.873Z,-9.37
2022-12-18T02:53:40.357Z,-9.38
2022-12-18T02:54:39.853Z,-9.38
2022-12-18T02:55:39.842Z,-9.39
2022-12-18T02:56:39.837Z,-9.40
2022-12-18T02:57:39.845Z,-9.40
2022-12-18T02:58:39.816Z,-9.40
2022-12-18T02:59:39.796Z,-9.40
2022-12-18T03:00:39.794Z,-9.41
2022-12-18T03:01:39.881Z,-9.42
2022-12-18T03:02:39.855Z,-9.42
2022-12-18T03:03:40.119Z,-9.43
2022-12-18T03:04:39.750Z,-9.44
2022-12-18T03:05:39.742Z,-9.45
2022-12-18T03:06:39.739Z,-9.47
2022-12-18T03:07:39.720Z,-9.48
2022-12-18T03:08:39.729Z,-9.49
2022-12-18T03:09:39.698Z,-9.50
2022-12-18T03:10:39.683Z,-9.50
2022-12-18T03:11:39.677Z,-9.51
2022-12-18T03:12:39.665Z,-9.52
2022-12-18T03:13:39.939Z,-9.53
2022-12-18T03:14:39.646Z,-9.53
2022-12-18T03:15:39.636Z,-9.54
2022-12-18T03:16:39.725Z,-9.55
2022-12-18T03:17:39.630Z,-9.55
2022-12-18T03:18:39.626Z,-9.55
2022-12-18T03:19:39.595Z,-9.54
2022-12-18T03:20:39.584Z,-9.53
2022-12-18T03:21:39.587Z,-9.53
2022-12-18T03:22:39.561Z,-9.54
2022-12-18T03:23:39.912Z,-9.54
2022-12-18T03:24:39.544Z,-9.55
2022-12-18T03:25:39.531Z,-9.56
2022-12-18T03:26:39.529Z,-9.57
2022-12-18T03:27:39.521Z,-9.57
2022-12-18T03:28:39.534Z,-9.57
2022-12-18T03:29:39.503Z,-9.57
2022-12-18T03:30:39.489Z,-9.57
2022-12-18T03:31:39.479Z,-9.57
2022-12-18T03:32:39.466Z,-9.56
2022-12-18T03:33:39.814Z,-9.56
2022-12-18T03:34:39.470Z,-9.56
2022-12-18T03:35:39.427Z,-9.57
2022-12-18T03:36:39.416Z,-9.58
2022-12-18T03:37:39.404Z,-9.59
2022-12-18T03:38:39.397Z,-9.60
2022-12-18T03:39:39.382Z,-9.61
2022-12-18T03:40:39.407Z,-9.61
2022-12-18T03:41:39.364Z,-9.62
2022-12-18T03:42:39.363Z,-9.63
2022-12-18T03:43:39.655Z,-9.63
2022-12-18T03:44:39.347Z,-9.63
2022-12-18T03:45:39.507Z,-9.63
2022-12-18T03:46:39.335Z,-9.63
2022-12-18T03:47:39.302Z,-9.62
2022-12-18T03:48:39.302Z,-9.61
2022-12-18T03:49:39.282Z,-9.59
2022-12-18T03:50:39.277Z,-9.58
2022-12-18T03:51:39.301Z,-9.58
2022-12-18T03:52:39.251Z,-9.59
2022-12-18T03:53:39.584Z,-9.60
2022-12-18T03:54:39.241Z,-9.61
2022-12-18T03:55:39.251Z,-9.62
2022-12-18T03:56:39.211Z,-9.63
2022-12-18T03:57:39.233Z,-9.64
2022-12-18T03:58:39.217Z,-9.64
2022-12-18T03:59:39.180Z,-9.66
2022-12-18T04:00:39.181Z,-9.68
2022-12-18T04:01:39.285Z,-9.70
2022-12-18T04:02:39.277Z,-9.72
2022-12-18T04:03:39.456Z,-9.74
2022-12-18T04:04:39.135Z,-9.77
2022-12-18T04:05:39.118Z,-9.78
2022-12-18T04:06:39.111Z,-9.79
2022-12-18T04:07:39.113Z,-9.80
2022-12-18T04:08:39.084Z,-9.82
2022-12-18T04:09:39.077Z,-9.83
2022-12-18T04:10:39.071Z,-9.84
2022-12-18T04:11:39.061Z,-9.86
2022-12-18T04:12:39.108Z,-9.87
2022-12-18T04:13:39.547Z,-9.88
2022-12-18T04:14:39.040Z,-9.89
2022-12-18T04:15:39.052Z,-9.90
2022-12-18T04:16:39.001Z,-9.90
2022-12-18T04:17:39.010Z,-9.90
2022-12-18T04:18:39.020Z,-9.90
2022-12-18T04:19:38.977Z,-9.90
2022-12-18T04:20:38.973Z,-9.90
2022-12-18T04:21:38.960Z,-9.90
2022-12-18T04:22:38.973Z,-9.91
2022-12-18T04:23:39.316Z,-9.91
2022-12-18T04:24:38.929Z,-9.91
2022-12-18T04:25:38.914Z,-9.90
2022-12-18T04:26:38.915Z,-9.89
2022-12-18T04:27:38.977Z,-9.88
2022-12-18T04:28:38.882Z,-9.88
2022-12-18T04:29:38.866Z,-9.87
2022-12-18T04:30:38.885Z,-9.87
2022-12-18T04:31:38.854Z,-9.87
2022-12-18T04:32:38.862Z,-9.88
2022-12-18T04:33:39.262Z,-9.89
2022-12-18T04:34:38.825Z,-9.90
2022-12-18T04:35:38.849Z,-9.91
2022-12-18T04:36:38.809Z,-9.92
2022-12-18T04:37:38.795Z,-9.93
2022-12-18T04:38:38.789Z,-9.94
2022-12-18T04:39:38.826Z,-9.95
2022-12-18T04:40:38.774Z,-9.96
2022-12-18T04:41:38.819Z,-9.97
2022-12-18T04:42:38.768Z,-9.98
2022-12-18T04:43:39.025Z,-10.00
2022-12-18T04:44:38.722Z,-10.01
2022-12-18T04:45:38.708Z,-10.02
2022-12-18T04:46:38.788Z,-10.03
2022-12-18T04:47:38.735Z,-10.05
2022-12-18T04:48:38.679Z,-10.07
2022-12-18T04:49:38.672Z,-10.08
2022-12-18T04:50:38.673Z,-10.10
2022-12-18T04:51:38.662Z,-10.12
2022-12-18T04:52:38.645Z,-10.12
2022-12-18T04:53:39.051Z,-10.11
2022-12-18T04:54:38.619Z,-10.11
2022-12-18T04:55:38.648Z,-10.10
2022-12-18T04:56:38.594Z,-10.08
2022-12-18T04:57:38.581Z,-10.07
2022-12-18T04:58:38.582Z,-10.05
2022-12-18T04:59:38.566Z,-10.05
2022-12-18T05:00:38.564Z,-10.05
2022-12-18T05:01:38.686Z,-10.05
2022-12-18T05:02:38.641Z,-10.06
2022-12-18T05:03:39.083Z,-10.07
2022-12-18T05:04:38.522Z,-10.07
2022-12-18T05:05:38.505Z,-10.08
2022-12-18T05:06:38.494Z,-10.09
2022-12-18T05:07:38.511Z,-10.09
2022-12-18T05:08:38.487Z,-10.10
2022-12-18T05:09:38.469Z,-10.10
2022-12-18T05:10:38.635Z,-10.11
2022-12-18T05:11:38.453Z,-10.12
2022-12-18T05:12:38.434Z,-10.13
2022-12-18T05:13:38.725Z,-10.14
2022-12-18T05:14:38.412Z,-10.14
2022-12-18T05:15:38.460Z,-10.12
2022-12-18T05:16:38.397Z,-10.11
2022-12-18T05:17:38.406Z,-10.11
2022-12-18T05:18:38.373Z,-10.11
2022-12-18T05:19:38.362Z,-10.12
2022-12-18T05:20:38.361Z,-10.13
2022-12-18T05:21:38.358Z,-10.14
2022-12-18T05:22:38.363Z,-10.15
2022-12-18T05:23:38.852Z,-10.17
2022-12-18T05:24:38.324Z,-10.18
2022-12-18T05:25:38.304Z,-10.19
2022-12-18T05:26:38.299Z,-10.19
2022-12-18T05:27:38.280Z,-10.18
2022-12-18T05:28:38.285Z,-10.19
2022-12-18T05:29:38.278Z,-10.20
2022-12-18T05:30:38.254Z,-10.20
2022-12-18T05:31:39.885Z,-10.21
2022-12-18T05:32:38.249Z,-10.23
2022-12-18T05:33:38.725Z,-10.24
2022-12-18T05:34:38.266Z,-10.25
2022-12-18T05:35:38.204Z,-10.26
2022-12-18T05:36:38.184Z,-10.28
2022-12-18T05:37:42.683Z,-10.29
2022-12-18T05:38:39.194Z,-10.30
2022-12-18T05:39:38.171Z,-10.32
2022-12-18T05:40:38.152Z,-10.33
2022-12-18T05:41:38.140Z,-10.34
2022-12-18T05:42:38.149Z,-10.35
2022-12-18T05:43:38.450Z,-10.36
2022-12-18T05:44:38.123Z,-10.36
2022-12-18T05:45:38.095Z,-10.37
2022-12-18T05:46:38.151Z,-10.38
2022-12-18T05:47:38.079Z,-10.38
2022-12-18T05:48:38.100Z,-10.38
2022-12-18T05:49:38.098Z,-10.39
2022-12-18T05:50:38.043Z,-10.40
2022-12-18T05:51:38.048Z,-10.42
2022-12-18T05:52:38.024Z,-10.43
2022-12-18T05:53:38.394Z,-10.44
2022-12-18T05:54:38.037Z,-10.45
2022-12-18T05:55:38.007Z,-10.46
2022-12-18T05:56:37.985Z,-10.46
2022-12-18T05:57:38.005Z,-10.46
2022-12-18T05:58:37.971Z,-10.44
2022-12-18T05:59:37.986Z,-10.41
2022-12-18T06:00:37.960Z,-10.39
2022-12-18T06:01:38.048Z,-10.37
2022-12-18T06:02:38.018Z,-10.35
2022-12-18T06:03:37.995Z,-10.32
2022-12-18T06:04:37.921Z,-10.29
2022-12-18T06:05:37.948Z,-10.26
2022-12-18T06:06:37.957Z,-10.24
2022-12-18T06:07:37.907Z,-10.23
2022-12-18T06:08:41.523Z,-10.22
2022-12-18T06:09:38.872Z,-10.22
2022-12-18T06:10:37.861Z,-10.22
2022-12-18T06:11:37.851Z,-10.24
2022-12-18T06:12:37.831Z,-10.26
2022-12-18T06:13:38.167Z,-10.28
2022-12-18T06:14:37.803Z,-10.30
2022-12-18T06:15:37.812Z,-10.32
2022-12-18T06:16:37.825Z,-10.34
2022-12-18T06:17:37.810Z,-10.36
2022-12-18T06:18:37.766Z,-10.38
2022-12-18T06:19:37.781Z,-10.40
2022-12-18T06:20:37.788Z,-10.41
2022-12-18T06:21:37.739Z,-10.42
2022-12-18T06:22:37.728Z,-10.44
2022-12-18T06:23:38.039Z,-10.46
2022-12-18T06:24:37.791Z,-10.48
2022-12-18T06:25:37.693Z,-10.49
2022-12-18T06:26:37.679Z,-10.51
2022-12-18T06:27:37.676Z,-10.52
2022-12-18T06:28:37.706Z,-10.53
2022-12-18T06:29:37.704Z,-10.54
2022-12-18T06:30:37.664Z,-10.54
2022-12-18T06:31:37.670Z,-10.54
2022-12-18T06:32:37.618Z,-10.54
2022-12-18T06:33:37.900Z,-10.54
2022-12-18T06:34:37.629Z,-10.53
2022-12-18T06:35:37.590Z,-10.53
2022-12-18T06:36:37.597Z,-10.54
2022-12-18T06:37:37.569Z,-10.54
2022-12-18T06:38:37.995Z,-10.55
2022-12-18T06:39:37.564Z,-10.55
2022-12-18T06:40:37.542Z,-10.56
2022-12-18T06:41:37.521Z,-10.57
2022-12-18T06:42:37.511Z,-10.57
2022-12-18T06:43:37.989Z,-10.58
2022-12-18T06:44:37.525Z,-10.59
2022-12-18T06:45:37.521Z,-10.59
2022-12-18T06:46:37.512Z,-10.59
2022-12-18T06:47:37.463Z,-10.60
2022-12-18T06:48:37.456Z,-10.60
2022-12-18T06:49:37.478Z,-10.61
2022-12-18T06:50:37.435Z,-10.62
2022-12-18T06:51:37.507Z,-10.62
2022-12-18T06:52:37.417Z,-10.62
2022-12-18T06:53:37.673Z,-10.62
2022-12-18T06:54:37.397Z,-10.62
2022-12-18T06:55:37.416Z,-10.62
2022-12-18T06:56:37.378Z,-10.63
2022-12-18T06:57:37.363Z,-10.63
2022-12-18T06:58:37.352Z,-10.64
2022-12-18T06:59:37.454Z,-10.66
2022-12-18T07:00:37.409Z,-10.67
2022-12-18T07:01:37.615Z,-10.69
2022-12-18T07:02:37.370Z,-10.71
2022-12-18T07:03:37.862Z,-10.73
2022-12-18T07:04:37.463Z,-10.74
2022-12-18T07:05:37.288Z,-10.76
2022-12-18T07:06:37.290Z,-10.77
2022-12-18T07:07:37.606Z,-10.78
2022-12-18T07:08:37.282Z,-10.79
2022-12-18T07:09:37.277Z,-10.79
2022-12-18T07:10:39.869Z,-10.79
2022-12-18T07:11:38.224Z,-10.79
2022-12-18T07:12:37.227Z,-10.79
2022-12-18T07:13:37.593Z,-10.79
2022-12-18T07:14:37.227Z,-10.78
2022-12-18T07:15:37.182Z,-10.78
2022-12-18T07:16:37.213Z,-10.78
2022-12-18T07:17:37.163Z,-10.77
2022-12-18T07:18:37.156Z,-10.77
2022-12-18T07:19:37.176Z,-10.77
2022-12-18T07:20:37.135Z,-10.77
2022-12-18T07:21:37.119Z,-10.77
2022-12-18T07:22:37.125Z,-10.77
2022-12-18T07:23:37.249Z,-10.77
2022-12-18T07:24:37.113Z,-10.78
2022-12-18T07:25:37.124Z,-10.79
2022-12-18T07:26:37.078Z,-10.80
2022-12-18T07:27:37.098Z,-10.82
2022-12-18T07:28:37.060Z,-10.83
2022-12-18T07:29:37.040Z,-10.84
2022-12-18T07:30:37.024Z,-10.85
2022-12-18T07:31:37.108Z,-10.85
2022-12-18T07:32:37.008Z,-10.85
2022-12-18T07:33:37.377Z,-10.86
2022-12-18T07:34:36.985Z,-10.86
2022-12-18T07:35:36.975Z,-10.86
2022-12-18T07:36:36.994Z,-10.87
2022-12-18T07:37:36.960Z,-10.88
2022-12-18T07:38:36.948Z,-10.88
2022-12-18T07:39:36.936Z,-10.88
2022-12-18T07:40:36.940Z,-10.88
2022-12-18T07:41:36.917Z,-10.87
2022-12-18T07:42:36.934Z,-10.85
2022-12-18T07:43:37.092Z,-10.83
2022-12-18T07:44:36.888Z,-10.81
2022-12-18T07:45:36.908Z,-10.79
2022-12-18T07:46:36.863Z,-10.77
2022-12-18T07:47:36.860Z,-10.76
2022-12-18T07:48:36.854Z,-10.74
2022-12-18T07:49:36.834Z,-10.72
2022-12-18T07:50:36.859Z,-10.70
2022-12-18T07:51:36.828Z,-10.68
2022-12-18T07:52:36.835Z,-10.66
2022-12-18T07:53:37.174Z,-10.63
2022-12-18T07:54:36.790Z,-10.61
2022-12-18T07:55:59.849Z,-10.58
2022-12-18T07:56:37.766Z,-10.55
2022-12-18T07:57:56.405Z,-10.53
2022-12-18T07:58:37.756Z,-10.50
2022-12-18T07:59:36.735Z,-10.47
2022-12-18T08:00:36.750Z,-10.44
2022-12-18T08:01:36.829Z,-10.42
2022-12-18T08:02:36.789Z,-10.39
2022-12-18T08:03:37.065Z,-10.37
2022-12-18T08:04:36.686Z,-10.35
2022-12-18T08:05:36.690Z,-10.32
2022-12-18T08:06:36.673Z,-10.30
2022-12-18T08:07:36.662Z,-10.28
2022-12-18T08:08:36.655Z,-10.27
2022-12-18T08:09:36.707Z,-10.25
2022-12-18T08:10:36.692Z,-10.24
2022-12-18T08:11:36.638Z,-10.23
2022-12-18T08:12:36.601Z,-10.22
2022-12-18T08:13:37.096Z,-10.22
2022-12-18T08:14:36.583Z,-10.21
2022-12-18T08:15:36.600Z,-10.21
2022-12-18T08:16:36.598Z,-10.20
2022-12-18T08:17:36.557Z,-10.19
2022-12-18T08:18:36.591Z,-10.17
2022-12-18T08:19:36.527Z,-10.17
2022-12-18T08:20:36.546Z,-10.15
2022-12-18T08:21:36.505Z,-10.14
2022-12-18T08:22:36.518Z,-10.12
2022-12-18T08:23:42.057Z,-10.10
2022-12-18T08:24:37.477Z,-10.09
2022-12-18T08:25:36.476Z,-10.07
2022-12-18T08:26:36.472Z,-10.05
2022-12-18T08:27:36.444Z,-10.02
2022-12-18T08:28:36.469Z,-10.00
2022-12-18T08:29:36.431Z,-9.97
2022-12-18T08:30:36.476Z,-9.95
2022-12-18T08:31:36.479Z,-9.92
2022-12-18T08:32:36.429Z,-9.90
2022-12-18T08:33:36.549Z,-9.87
2022-12-18T08:34:36.387Z,-9.83
2022-12-18T08:35:39.856Z,-9.79
2022-12-18T08:36:37.381Z,-9.75
2022-12-18T08:37:36.374Z,-9.71
2022-12-18T08:38:36.355Z,-9.68
2022-12-18T08:39:36.356Z,-9.65
2022-12-18T08:40:36.326Z,-9.62
2022-12-18T08:41:36.349Z,-9.60
2022-12-18T08:42:36.355Z,-9.57
2022-12-18T08:43:36.388Z,-9.54
2022-12-18T08:44:36.288Z,-9.51
2022-12-18T08:45:36.332Z,-9.49
2022-12-18T08:46:36.363Z,-9.47
2022-12-18T08:47:36.277Z,-9.45
2022-12-18T08:48:36.244Z,-9.43
2022-12-18T08:49:36.227Z,-9.41
2022-12-18T08:50:36.209Z,-9.39
2022-12-18T08:51:36.211Z,-9.37
2022-12-18T08:52:36.193Z,-9.35
2022-12-18T08:53:36.240Z,-9.32
2022-12-18T08:54:36.167Z,-9.30
2022-12-18T08:55:36.177Z,-9.27
2022-12-18T08:56:36.172Z,-9.23
2022-12-18T08:57:36.176Z,-9.20
2022-12-18T08:58:36.147Z,-9.17
2022-12-18T08:59:36.130Z,-9.15
2022-12-18T09:00:36.119Z,-9.12
2022-12-18T09:01:36.191Z,-9.09
2022-12-18T09:02:36.206Z,-9.06
2022-12-18T09:03:36.179Z,-9.03
2022-12-18T09:04:36.097Z,-9.02
2022-12-18T09:05:36.053Z,-9.00
2022-12-18T09:06:36.052Z,-8.99
2022-12-18T09:07:36.070Z,-8.97
2022-12-18T09:08:44.901Z,-8.95
2022-12-18T09:09:36.033Z,-8.93
2022-12-18T09:10:41.734Z,-8.90
2022-12-18T09:11:37.004Z,-8.88
2022-12-18T09:12:35.993Z,-8.85
2022-12-18T09:13:35.989Z,-8.82
2022-12-18T09:14:36.026Z,-8.79
2022-12-18T09:15:35.968Z,-8.76
2022-12-18T09:16:36.067Z,-8.71
2022-12-18T09:17:35.940Z,-8.62
2022-12-18T09:18:35.956Z,-8.48
2022-12-18T09:19:35.940Z,-8.32
2022-12-18T09:20:35.919Z,-8.16
2022-12-18T09:21:37.189Z,-8.03
2022-12-18T09:22:35.903Z,-7.91
2022-12-18T09:23:35.889Z,-7.81
2022-12-18T09:24:36.001Z,-7.76
2022-12-18T09:25:35.875Z,-7.72
2022-12-18T09:26:35.837Z,-7.68
2022-12-18T09:27:35.839Z,-7.66
2022-12-18T09:28:35.840Z,-7.64
2022-12-18T09:29:35.825Z,-7.61
2022-12-18T09:30:35.854Z,-7.59
2022-12-18T09:31:35.812Z,-7.56
2022-12-18T09:32:35.817Z,-7.51
2022-12-18T09:33:36.479Z,-7.45
2022-12-18T09:34:35.776Z,-7.39
2022-12-18T09:35:35.759Z,-7.35
2022-12-18T09:36:35.743Z,-7.32
2022-12-18T09:37:35.748Z,-7.30
2022-12-18T09:38:35.774Z,-7.28
2022-12-18T09:39:35.724Z,-7.26
2022-12-18T09:40:35.693Z,-7.25
2022-12-18T09:41:35.694Z,-7.24
2022-12-18T09:42:35.700Z,-7.23
2022-12-18T09:43:35.696Z,-7.21
2022-12-18T09:44:41.442Z,-7.19
2022-12-18T09:45:36.652Z,-7.15
2022-12-18T09:46:35.752Z,-7.11
2022-12-18T09:47:35.655Z,-7.06
2022-12-18T09:48:35.631Z,-7.01
2022-12-18T09:49:35.624Z,-6.96
2022-12-18T09:50:35.616Z,-6.91
2022-12-18T09:51:35.591Z,-6.87
2022-12-18T09:52:35.572Z,-6.83
2022-12-18T09:53:35.641Z,-6.80
2022-12-18T09:54:35.651Z,-6.77
2022-12-18T09:55:37.600Z,-6.74
2022-12-18T09:56:35.542Z,-6.71
2022-12-18T09:57:36.581Z,-6.69
2022-12-18T09:58:37.057Z,-6.67
2022-12-18T09:59:35.532Z,-6.65
2022-12-18T10:00:35.498Z,-6.63
2022-12-18T10:01:43.183Z,-6.63
2022-12-18T10:02:36.587Z,-6.63
2022-12-18T10:03:35.535Z,-6.65
2022-12-18T10:04:35.576Z,-6.66
2022-12-18T10:05:35.436Z,-6.67
2022-12-18T10:06:35.433Z,-6.68
2022-12-18T10:07:35.435Z,-6.68
2022-12-18T10:08:35.449Z,-6.67
2022-12-18T10:09:35.418Z,-6.67
2022-12-18T10:10:35.417Z,-6.67
2022-12-18T10:11:35.381Z,-6.67
2022-12-18T10:12:35.370Z,-6.68
2022-12-18T10:13:35.361Z,-6.68
2022-12-18T10:14:35.356Z,-6.69
2022-12-18T10:15:35.444Z,-6.70
2022-12-18T10:16:35.339Z,-6.71
2022-12-18T10:17:35.324Z,-6.72
2022-12-18T10:18:35.303Z,-6.72
2022-12-18T10:19:35.662Z,-6.72
2022-12-18T10:20:35.628Z,-6.71
2022-12-18T10:21:35.387Z,-6.71
2022-12-18T10:22:35.545Z,-6.68
2022-12-18T10:23:35.408Z,-6.64
2022-12-18T10:24:35.286Z,-6.59
2022-12-18T10:25:35.271Z,-6.55
2022-12-18T10:26:35.252Z,-6.51
2022-12-18T10:27:35.208Z,-6.47
2022-12-18T10:28:35.244Z,-6.44
2022-12-18T10:29:35.197Z,-6.41
2022-12-18T10:30:35.206Z,-6.38
2022-12-18T10:31:35.267Z,-6.36
2022-12-18T10:32:35.168Z,-6.35
2022-12-18T10:33:35.162Z,-6.33
2022-12-18T10:34:35.143Z,-6.32
2022-12-18T10:35:35.179Z,-6.32
2022-12-18T10:36:35.136Z,-6.31
2022-12-18T10:37:35.139Z,-6.31
2022-12-18T10:38:35.134Z,-6.30
2022-12-18T10:39:35.092Z,-6.29
2022-12-18T10:40:35.098Z,-6.28
2022-12-18T10:41:35.068Z,-6.27
2022-12-18T10:42:35.105Z,-6.26
2022-12-18T10:43:35.094Z,-6.24
2022-12-18T10:44:35.047Z,-6.24
2022-12-18T10:45:35.046Z,-6.24
2022-12-18T10:46:35.095Z,-6.24
2022-12-18T10:47:35.025Z,-6.24
2022-12-18T10:48:35.049Z,-6.23
2022-12-18T10:49:35.359Z,-6.23
2022-12-18T10:51:35.993Z,-6.22
2022-12-18T10:52:34.950Z,-6.22
2022-12-18T10:53:34.958Z,-6.21
2022-12-18T10:54:34.936Z,-6.21
2022-12-18T10:55:34.958Z,-6.20
2022-12-18T10:56:34.937Z,-6.19
2022-12-18T10:57:34.900Z,-6.17
2022-12-18T10:58:34.902Z,-6.16
2022-12-18T10:59:34.893Z,-6.14
2022-12-18T11:00:34.888Z,-6.12
2022-12-18T11:01:34.957Z,-6.10
2022-12-18T11:02:35.193Z,-6.07
2022-12-18T11:03:34.891Z,-6.04
2022-12-18T11:04:34.841Z,-6.01
2022-12-18T11:05:34.885Z,-5.98
2022-12-18T11:06:34.830Z,-5.96
2022-12-18T11:07:34.819Z,-5.93
2022-12-18T11:08:34.836Z,-5.90
2022-12-18T11:09:34.782Z,-5.88
2022-12-18T11:10:34.776Z,-5.86
2022-12-18T11:11:34.769Z,-5.84
2022-12-18T11:12:34.749Z,-5.82
2022-12-18T11:13:34.746Z,-5.80
2022-12-18T11:14:34.733Z,-5.78
2022-12-18T11:15:34.709Z,-5.76
2022-12-18T11:16:34.773Z,-5.73
2022-12-18T11:17:34.692Z,-5.70
2022-12-18T11:18:34.705Z,-5.66
2022-12-18T11:19:34.713Z,-5.64
2022-12-18T11:20:34.668Z,-5.62
2022-12-18T11:21:34.668Z,-5.60
2022-12-18T11:22:34.784Z,-5.59
2022-12-18T11:23:34.646Z,-5.57
2022-12-18T11:24:34.624Z,-5.56
2022-12-18T11:25:35.970Z,-5.54
2022-12-18T11:26:34.651Z,-5.54
2022-12-18T11:27:34.609Z,-5.53
2022-12-18T11:28:34.616Z,-5.52
2022-12-18T11:29:34.570Z,-5.51
2022-12-18T11:30:34.582Z,-5.51
2022-12-18T11:31:34.664Z,-5.49
2022-12-18T11:32:34.553Z,-5.48
2022-12-18T11:33:34.547Z,-5.46
2022-12-18T11:34:35.245Z,-5.44
2022-12-18T11:35:34.510Z,-5.43
2022-12-18T11:36:34.534Z,-5.42
2022-12-18T11:37:34.493Z,-5.41
2022-12-18T11:38:34.497Z,-5.40
2022-12-18T11:39:34.490Z,-5.39
2022-12-18T11:40:40.740Z,-5.38
2022-12-18T11:41:35.487Z,-5.37
2022-12-18T11:42:34.483Z,-5.36
2022-12-18T11:43:34.495Z,-5.35
2022-12-18T11:44:34.477Z,-5.33
2022-12-18T11:45:34.446Z,-5.32
2022-12-18T11:46:34.516Z,-5.31
2022-12-18T11:47:34.384Z,-5.29
2022-12-18T11:48:34.395Z,-5.27
2022-12-18T11:49:34.370Z,-5.25
2022-12-18T11:50:34.355Z,-5.23
2022-12-18T11:51:34.359Z,-5.19
2022-12-18T11:52:34.371Z,-5.14
2022-12-18T11:53:34.368Z,-5.09
2022-12-18T11:54:34.343Z,-5.04
2022-12-18T11:55:34.303Z,-5.01
2022-12-18T11:56:34.297Z,-4.98
2022-12-18T11:57:34.303Z,-4.96
2022-12-18T11:58:34.361Z,-4.94
2022-12-18T11:59:34.294Z,-4.90
2022-12-18T12:00:34.274Z,-4.84
2022-12-18T12:01:38.947Z,-4.78
2022-12-18T12:02:35.387Z,-4.71
2022-12-18T12:03:34.275Z,-4.66
2022-12-18T12:04:34.300Z,-4.62
2022-12-18T12:05:34.211Z,-4.58
2022-12-18T12:06:34.216Z,-4.56
2022-12-18T12:07:34.215Z,-4.52
2022-12-18T12:08:34.192Z,-4.48
2022-12-18T12:09:34.182Z,-4.44
2022-12-18T12:10:34.147Z,-4.39
2022-12-18T12:11:34.452Z,-4.35
2022-12-18T12:12:34.129Z,-4.32
2022-12-18T12:13:34.137Z,-4.30
2022-12-18T12:14:34.105Z,-4.29
2022-12-18T12:15:34.129Z,-4.28
2022-12-18T12:16:34.177Z,-4.27
2022-12-18T12:17:34.087Z,-4.26
2022-12-18T12:18:34.095Z,-4.25
2022-12-18T12:19:34.077Z,-4.25
2022-12-18T12:20:36.143Z,-4.25
2022-12-18T12:21:34.070Z,-4.26
2022-12-18T12:22:34.028Z,-4.27
2022-12-18T12:23:34.097Z,-4.28
2022-12-18T12:24:34.032Z,-4.28
2022-12-18T12:25:34.048Z,-4.28
2022-12-18T12:26:34.039Z,-4.28
2022-12-18T12:27:33.995Z,-4.28
2022-12-18T12:28:34.019Z,-4.28
2022-12-18T12:29:33.987Z,-4.29
2022-12-18T12:30:33.979Z,-4.30
2022-12-18T12:31:34.012Z,-4.31
2022-12-18T12:32:34.042Z,-4.33
2022-12-18T12:33:33.930Z,-4.34
2022-12-18T12:34:33.932Z,-4.35
2022-12-18T12:35:33.894Z,-4.35
2022-12-18T12:36:33.892Z,-4.34
2022-12-18T12:37:33.890Z,-4.33
2022-12-18T12:38:33.864Z,-4.32
2022-12-18T12:39:33.872Z,-4.32
2022-12-18T12:40:53.751Z,-4.33
2022-12-18T12:41:34.831Z,-4.34
2022-12-18T12:42:33.877Z,-4.34
2022-12-18T12:43:33.810Z,-4.34
2022-12-18T12:44:33.828Z,-4.33
2022-12-18T12:45:33.864Z,-4.32
2022-12-18T12:46:33.791Z,-4.30